createdAt,value
2023-01-15T00:02:12.917Z,10.75
2023-01-15T00:04:41.297Z,10.52
2023-01-15T00:07:09.508Z,11.05
2023-01-15T00:09:37.678Z,10.95
2023-01-15T00:12:06.411Z,10.43
2023-01-15T00:14:34.690Z,10.32
2023-01-15T00:17:02.859Z,10.82
2023-01-15T00:19:32.443Z,9.70
2023-01-15T00:22:00.662Z,9.70
2023-01-15T00:24:46.287Z,10.85
2023-01-15T00:27:32.259Z,10.35
2023-01-15T00:30:00.585Z,9.38
2023-01-15T00:32:29.826Z,10.27
2023-01-15T00:35:00.472Z,9.25
2023-01-15T00:37:29.244Z,9.73
2023-01-15T00:39:57.430Z,9.23
2023-01-15T00:42:25.812Z,10.23
2023-01-15T00:44:54.026Z,8.75
2023-01-15T00:47:22.344Z,9.02
2023-01-15T00:49:51.696Z,9.07
2023-01-15T00:52:21.299Z,8.48
2023-01-15T00:54:49.478Z,8.52
2023-01-15T00:57:18.086Z,8.70
2023-01-15T00:59:46.455Z,8.80
2023-01-15T01:02:14.784Z,8.07
2023-01-15T01:04:43.249Z,9.25
2023-01-15T01:07:11.662Z,8.60
2023-01-15T01:09:41.306Z,7.72
2023-01-15T01:12:09.698Z,8.15
2023-01-15T01:14:38.252Z,7.97
2023-01-15T01:17:06.550Z,7.78
2023-01-15T01:19:34.762Z,7.68
2023-01-15T01:22:03.024Z,7.80
2023-01-15T01:24:31.189Z,7.77
2023-01-15T01:27:00.867Z,8.43
2023-01-15T01:29:29.215Z,8.40
2023-01-15T01:31:57.434Z,7.72
2023-01-15T01:34:25.659Z,7.78
2023-01-15T01:36:53.948Z,7.63
2023-01-15T01:39:22.155Z,7.18
2023-01-15T01:41:50.677Z,8.45
2023-01-15T01:45:01.098Z,7.30
2023-01-15T01:47:32.984Z,7.57
2023-01-15T01:50:05.243Z,7.68
2023-01-15T01:52:40.721Z,7.30
2023-01-15T01:55:11.509Z,7.80
2023-01-15T01:57:41.303Z,7.22
2023-01-15T02:00:13.746Z,7.13
2023-01-15T02:02:43.883Z,7.68
2023-01-15T02:05:16.465Z,7.50
2023-01-15T02:07:45.441Z,7.60
2023-01-15T02:10:17.811Z,7.27
2023-01-15T02:12:53.089Z,6.50
2023-01-15T02:15:30.279Z,6.97
2023-01-15T02:18:05.784Z,6.73
2023-01-15T02:20:38.804Z,7.10
2023-01-15T02:23:50.589Z,7.00
2023-01-15T02:29:27.466Z,7.57
2023-01-15T02:31:56.558Z,6.55
2023-01-15T02:34:28.654Z,7.05
2023-01-15T02:37:01.676Z,7.15
2023-01-15T02:39:32.680Z,7.17
2023-01-15T02:42:05.150Z,6.85
2023-01-15T02:44:43.078Z,6.97
2023-01-15T02:47:14.920Z,7.05
2023-01-15T02:49:45.408Z,8.00
2023-01-15T02:52:23.413Z,7.40
2023-01-15T02:54:57.052Z,7.13
2023-01-15T02:57:29.422Z,7.78
2023-01-15T03:00:05.422Z,7.28
2023-01-15T03:02:37.223Z,7.45
2023-01-15T03:05:10.542Z,7.05
2023-01-15T03:07:47.682Z,7.97
2023-01-15T03:10:17.284Z,7.55
2023-01-15T03:13:03.770Z,6.90
2023-01-15T03:16:09.959Z,7.90
2023-01-15T03:18:45.554Z,7.80
2023-01-15T03:21:22.256Z,7.70
2023-01-15T03:23:56.563Z,7.07
2023-01-15T03:26:28.077Z,8.05
2023-01-15T03:28:57.924Z,7.13
2023-01-15T03:31:27.801Z,7.28
2023-01-15T03:33:59.582Z,7.43
2023-01-15T03:36:28.695Z,8.10
2023-01-15T03:39:02.292Z,7.43
2023-01-15T03:41:57.182Z,7.32
2023-01-15T03:44:33.999Z,7.25
2023-01-15T03:47:18.100Z,6.45
2023-01-15T03:49:58.006Z,6.85
2023-01-15T03:52:43.484Z,6.93
2023-01-15T03:55:16.872Z,7.00
2023-01-15T03:57:58.764Z,7.27
2023-01-15T04:00:32.312Z,7.60
2023-01-15T04:03:05.859Z,6.83
2023-01-15T04:05:36.395Z,7.63
2023-01-15T04:08:07.358Z,6.85
2023-01-15T04:10:36.885Z,6.53
2023-01-15T04:13:07.939Z,6.88
2023-01-15T04:15:36.640Z,7.07
2023-01-15T04:18:06.354Z,6.60
2023-01-15T04:20:34.641Z,6.27
2023-01-15T04:23:02.857Z,6.13
2023-01-15T04:25:31.090Z,6.38
2023-01-15T04:27:59.317Z,6.30
2023-01-15T04:30:27.554Z,5.80
2023-01-15T04:32:55.743Z,6.03
2023-01-15T04:35:25.459Z,5.53
2023-01-15T04:37:56.323Z,6.00
2023-01-15T04:40:42.281Z,6.10
2023-01-15T04:43:29.819Z,5.60
2023-01-15T04:45:58.234Z,5.33
2023-01-15T04:48:26.534Z,5.97
2023-01-15T04:50:56.284Z,5.28
2023-01-15T04:53:24.479Z,4.82
2023-01-15T04:55:52.714Z,5.13
2023-01-15T04:58:20.882Z,5.15
2023-01-15T05:00:49.146Z,4.90
2023-01-15T05:03:17.427Z,4.95
2023-01-15T05:05:45.628Z,4.50
2023-01-15T05:08:15.248Z,4.43
2023-01-15T05:10:43.480Z,4.80
2023-01-15T05:13:11.694Z,4.80
2023-01-15T05:15:41.038Z,4.30
2023-01-15T05:18:09.451Z,4.32
2023-01-15T05:20:38.376Z,4.40
2023-01-15T05:23:06.546Z,4.13
2023-01-15T05:25:37.695Z,4.10
2023-01-15T05:28:06.354Z,4.28
2023-01-15T05:30:34.770Z,3.92
2023-01-15T05:33:03.096Z,3.92
2023-01-15T05:35:31.217Z,3.88
2023-01-15T05:37:59.470Z,3.78
2023-01-15T05:40:27.624Z,3.15
2023-01-15T05:42:57.259Z,3.38
2023-01-15T05:45:25.453Z,3.60
2023-01-15T05:47:54.510Z,3.72
2023-01-15T05:50:22.628Z,3.50
2023-01-15T05:52:51.083Z,3.53
2023-01-15T05:55:19.248Z,3.47
2023-01-15T05:57:47.389Z,3.88
2023-01-15T06:00:18.347Z,3.70
2023-01-15T06:02:50.278Z,3.60
2023-01-15T06:05:20.367Z,3.53
2023-01-15T06:07:52.852Z,3.60
2023-01-15T06:10:21.062Z,2.85
2023-01-15T06:12:49.196Z,3.22
2023-01-15T06:15:18.918Z,3.05
2023-01-15T06:17:50.280Z,3.60
2023-01-15T06:20:18.669Z,3.05
2023-01-15T06:22:46.871Z,2.72
2023-01-15T06:25:15.616Z,3.22
2023-01-15T06:27:44.628Z,2.63
2023-01-15T06:30:13.629Z,3.17
2023-01-15T06:32:43.224Z,3.20
2023-01-15T06:35:12.435Z,3.28
2023-01-15T06:37:40.575Z,2.90
2023-01-15T06:40:10.347Z,2.88
2023-01-15T06:42:55.830Z,2.83
2023-01-15T06:45:41.441Z,2.92
2023-01-15T06:48:10.990Z,2.70
2023-01-15T06:50:39.146Z,2.90
2023-01-15T06:53:07.442Z,2.60
2023-01-15T06:55:35.560Z,2.70
2023-01-15T06:58:04.475Z,2.67
2023-01-15T07:00:32.755Z,2.60
2023-01-15T07:03:01.786Z,2.80
2023-01-15T07:05:31.629Z,2.97
2023-01-15T07:08:00.243Z,2.80
2023-01-15T07:10:28.378Z,2.90
2023-01-15T07:12:56.675Z,2.72
2023-01-15T07:15:24.840Z,2.53
2023-01-15T07:17:55.872Z,2.50
2023-01-15T07:20:24.248Z,2.53
2023-01-15T07:22:54.256Z,2.75
2023-01-15T07:25:22.476Z,2.72
2023-01-15T07:27:50.662Z,2.97
2023-01-15T07:30:19.290Z,2.78
2023-01-15T07:32:47.437Z,2.85
2023-01-15T07:35:15.792Z,2.90
2023-01-15T07:37:45.043Z,2.83
2023-01-15T07:40:14.943Z,2.88
2023-01-15T07:43:00.323Z,2.90
2023-01-15T07:46:00.889Z,2.38
2023-01-15T07:48:47.108Z,2.75
2023-01-15T07:51:15.368Z,2.20
2023-01-15T07:53:43.554Z,3.00
2023-01-15T07:56:13.264Z,2.53
2023-01-15T07:58:41.476Z,2.90
2023-01-15T08:01:09.985Z,2.78
2023-01-15T08:03:38.440Z,2.80
2023-01-15T08:06:07.046Z,2.80
2023-01-15T08:08:35.225Z,2.65
2023-01-15T08:11:21.689Z,3.00
2023-01-15T08:14:08.851Z,3.08
2023-01-15T08:16:37.863Z,3.22
2023-01-15T08:19:06.056Z,2.78
2023-01-15T08:21:34.276Z,2.42
2023-01-15T08:24:02.429Z,2.63
2023-01-15T08:26:30.667Z,2.72
2023-01-15T08:29:00.198Z,2.72
2023-01-15T08:31:28.645Z,2.53
2023-01-15T08:33:56.984Z,2.88
2023-01-15T08:36:25.236Z,3.17
2023-01-15T08:38:53.414Z,2.85
2023-01-15T08:41:21.626Z,2.88
2023-01-15T08:43:49.765Z,2.97
2023-01-15T08:46:19.501Z,3.00
2023-01-15T08:48:48.394Z,2.90
2023-01-15T08:51:17.070Z,2.80
2023-01-15T08:53:45.312Z,2.60
2023-01-15T08:56:14.535Z,2.65
2023-01-15T08:58:44.261Z,2.92
2023-01-15T09:01:16.141Z,3.10
2023-01-15T09:03:46.026Z,2.90
2023-01-15T09:06:14.621Z,3.00
2023-01-15T09:08:42.956Z,2.53
2023-01-15T09:11:13.038Z,2.88
2023-01-15T09:13:44.197Z,3.13
2023-01-15T09:16:13.069Z,2.60
2023-01-15T09:18:41.470Z,2.72
2023-01-15T09:21:11.572Z,2.67
2023-01-15T09:23:39.889Z,3.10
2023-01-15T09:26:08.875Z,3.15
2023-01-15T09:28:37.515Z,2.60
2023-01-15T09:31:06.206Z,2.95
2023-01-15T09:33:34.445Z,2.58
2023-01-15T09:36:02.708Z,3.05
2023-01-15T09:38:34.527Z,2.97
2023-01-15T09:41:31.328Z,3.30
2023-01-15T09:44:09.907Z,3.00
2023-01-15T09:46:48.776Z,3.10
2023-01-15T09:49:31.091Z,3.50
2023-01-15T09:52:08.683Z,3.00
2023-01-15T09:54:51.956Z,3.10
2023-01-15T09:57:23.364Z,3.35
2023-01-15T09:59:54.789Z,2.95
2023-01-15T10:02:26.833Z,3.38
2023-01-15T10:04:59.248Z,3.72
2023-01-15T10:07:34.327Z,3.28
2023-01-15T10:10:07.655Z,3.40
2023-01-15T10:12:40.276Z,3.58
2023-01-15T10:15:19.791Z,3.38
2023-01-15T10:17:50.104Z,3.33
2023-01-15T10:20:30.497Z,3.95
2023-01-15T10:23:11.236Z,3.40
2023-01-15T10:25:47.972Z,3.95
2023-01-15T10:28:21.812Z,3.95
2023-01-15T10:30:55.184Z,3.33
2023-01-15T10:33:47.548Z,3.97
2023-01-15T10:36:21.270Z,3.60
2023-01-15T10:38:58.247Z,4.30
2023-01-15T10:41:48.511Z,3.88
2023-01-15T10:44:21.972Z,3.78
2023-01-15T10:46:58.473Z,3.67
2023-01-15T10:49:30.130Z,4.40
2023-01-15T10:52:01.022Z,4.07
2023-01-15T10:54:34.446Z,4.32
2023-01-15T10:57:11.960Z,4.00
2023-01-15T10:59:46.319Z,4.25
2023-01-15T11:02:28.308Z,4.30
2023-01-15T11:04:56.838Z,4.65
2023-01-15T11:07:30.986Z,4.20
2023-01-15T11:10:03.348Z,4.22
2023-01-15T11:12:50.977Z,4.70
2023-01-15T11:15:42.132Z,4.45
2023-01-15T11:18:34.120Z,4.15
2023-01-15T11:21:03.568Z,4.68
2023-01-15T11:23:37.504Z,4.43
2023-01-15T11:26:06.350Z,4.15
2023-01-15T11:28:40.348Z,4.63
2023-01-15T11:31:09.414Z,4.72
2023-01-15T11:33:38.517Z,4.68
2023-01-15T11:36:09.179Z,5.05
2023-01-15T11:38:46.267Z,5.10
2023-01-15T11:41:22.082Z,4.78
2023-01-15T11:44:16.511Z,5.20
2023-01-15T11:47:05.187Z,5.47
2023-01-15T11:49:50.753Z,5.20
2023-01-15T11:52:27.103Z,5.50
2023-01-15T11:54:56.967Z,5.82
2023-01-15T11:57:28.557Z,5.85
2023-01-15T11:59:58.910Z,5.82
2023-01-15T12:02:35.909Z,5.80
2023-01-15T12:05:06.037Z,5.88
2023-01-15T12:07:39.276Z,5.50
2023-01-15T12:10:42.640Z,5.90
2023-01-15T12:13:21.201Z,6.85
2023-01-15T12:15:58.605Z,5.55
2023-01-15T12:18:59.723Z,5.70
2023-01-15T12:21:54.759Z,5.43
2023-01-15T12:24:47.310Z,5.78
2023-01-15T12:27:37.125Z,5.38
2023-01-15T12:30:19.066Z,5.38
2023-01-15T12:32:53.978Z,5.75
2023-01-15T12:35:29.698Z,5.75
2023-01-15T12:38:02.715Z,5.68
2023-01-15T12:40:38.328Z,5.80
2023-01-15T12:43:34.318Z,5.60
2023-01-15T12:46:06.347Z,6.00
2023-01-15T12:48:43.094Z,6.35
2023-01-15T12:51:16.076Z,5.70
2023-01-15T12:53:47.299Z,6.25
2023-01-15T12:56:22.588Z,6.38
2023-01-15T12:58:55.514Z,5.95
2023-01-15T13:01:32.382Z,6.10
2023-01-15T13:04:11.992Z,5.55
2023-01-15T13:06:45.632Z,5.35
2023-01-15T13:09:30.682Z,6.30
2023-01-15T13:11:59.159Z,5.93
2023-01-15T13:14:27.315Z,6.13
2023-01-15T13:17:02.551Z,5.95
2023-01-15T13:19:44.633Z,5.68
2023-01-15T13:22:17.937Z,6.28
2023-01-15T13:25:06.067Z,6.25
2023-01-15T13:27:51.542Z,5.82
2023-01-15T13:30:34.023Z,5.53
2023-01-15T13:33:18.024Z,6.15
2023-01-15T13:35:52.550Z,5.72
2023-01-15T13:38:23.647Z,6.18
2023-01-15T13:40:55.314Z,5.85
2023-01-15T13:43:31.759Z,5.32
2023-01-15T13:46:00.596Z,5.50
2023-01-15T13:48:33.401Z,5.72
2023-01-15T13:51:05.827Z,5.18
2023-01-15T13:53:37.208Z,6.40
2023-01-15T13:56:09.606Z,5.63
2023-01-15T13:58:42.933Z,5.85
2023-01-15T14:01:25.158Z,6.07
2023-01-15T14:04:02.077Z,5.63
2023-01-15T14:06:46.352Z,5.75
2023-01-15T14:09:27.830Z,5.32
2023-01-15T14:12:08.290Z,5.45
2023-01-15T14:15:07.352Z,5.43
2023-01-15T14:18:04.209Z,5.47
2023-01-15T14:21:01.843Z,5.32
2023-01-15T14:23:58.821Z,5.10
2023-01-15T14:26:37.685Z,5.53
2023-01-15T14:29:31.010Z,5.53
2023-01-15T14:32:08.801Z,5.07
2023-01-15T14:34:37.884Z,5.28
2023-01-15T14:37:08.350Z,5.38
2023-01-15T14:39:48.951Z,5.38
2023-01-15T14:42:43.962Z,5.57
2023-01-15T14:45:22.322Z,6.45
2023-01-15T14:47:52.443Z,5.53
2023-01-15T14:50:39.521Z,5.53
2023-01-15T14:53:25.004Z,5.63
2023-01-15T14:55:59.342Z,4.85
2023-01-15T14:58:43.363Z,5.72
2023-01-15T15:01:24.646Z,5.00
2023-01-15T15:03:58.575Z,5.10
2023-01-15T15:06:28.756Z,5.22
2023-01-15T15:09:03.302Z,5.50
2023-01-15T15:11:57.430Z,5.32
2023-01-15T15:14:29.959Z,5.10
2023-01-15T15:17:02.193Z,5.13
2023-01-15T15:19:36.546Z,6.00
2023-01-15T15:22:08.904Z,5.32
2023-01-15T15:24:44.161Z,5.60
2023-01-15T15:27:18.946Z,5.07
2023-01-15T15:29:47.584Z,5.60
2023-01-15T15:32:19.041Z,5.45
2023-01-15T15:34:51.359Z,5.63
2023-01-15T15:37:21.483Z,5.80
2023-01-15T15:39:54.595Z,5.45
2023-01-15T15:42:44.933Z,5.32
2023-01-15T15:45:38.390Z,5.15
2023-01-15T15:48:32.385Z,5.30
2023-01-15T15:51:00.828Z,4.97
2023-01-15T15:53:28.993Z,5.03
2023-01-15T15:55:58.991Z,6.05
2023-01-15T15:58:33.665Z,5.75
2023-01-15T16:01:02.885Z,5.45
2023-01-15T16:03:33.465Z,5.15
2023-01-15T16:06:03.569Z,5.50
2023-01-15T16:08:33.413Z,5.30
2023-01-15T16:11:03.960Z,6.07
2023-01-15T16:13:37.615Z,5.63
2023-01-15T16:16:08.291Z,5.10
2023-01-15T16:18:41.127Z,5.75
2023-01-15T16:21:10.402Z,5.75
2023-01-15T16:23:38.940Z,5.60
2023-01-15T16:26:15.141Z,5.63
2023-01-15T16:28:47.484Z,6.03
2023-01-15T16:31:18.649Z,7.00
2023-01-15T16:33:48.325Z,5.50
2023-01-15T16:36:16.552Z,5.80
2023-01-15T16:38:50.075Z,5.68
2023-01-15T16:41:21.033Z,5.60
2023-01-15T16:43:56.641Z,6.28
2023-01-15T16:46:27.562Z,5.88
2023-01-15T16:49:21.030Z,6.00
2023-01-15T16:51:49.903Z,6.38
2023-01-15T16:54:47.378Z,6.45
2023-01-15T16:57:34.713Z,6.30
2023-01-15T17:00:08.196Z,5.70
2023-01-15T17:02:45.269Z,5.68
2023-01-15T17:05:22.803Z,5.90
2023-01-15T17:07:54.170Z,6.10
2023-01-15T17:10:25.250Z,6.10
2023-01-15T17:12:56.277Z,5.70
2023-01-15T17:15:47.358Z,6.18
2023-01-15T17:18:36.427Z,5.70
2023-01-15T17:21:05.016Z,6.53
2023-01-15T17:23:36.830Z,6.55
2023-01-15T17:26:05.856Z,6.53
2023-01-15T17:28:34.185Z,6.55
2023-01-15T17:31:04.592Z,5.80
2023-01-15T17:33:32.792Z,6.97
2023-01-15T17:36:01.467Z,6.35
2023-01-15T17:38:29.757Z,6.35
2023-01-15T17:41:01.295Z,6.88
2023-01-15T17:43:29.548Z,6.80
2023-01-15T17:45:57.799Z,6.47
2023-01-15T17:48:27.467Z,6.65
2023-01-15T17:50:55.728Z,6.65
2023-01-15T17:53:24.241Z,7.10
2023-01-15T17:56:09.911Z,6.72
2023-01-15T17:58:57.778Z,7.50
2023-01-15T18:01:46.395Z,6.60
2023-01-15T18:04:38.706Z,7.38
2023-01-15T18:07:07.354Z,7.22
2023-01-15T18:09:36.781Z,7.95
2023-01-15T18:12:05.966Z,7.85
2023-01-15T18:14:34.156Z,8.20
2023-01-15T18:17:02.805Z,7.80
2023-01-15T18:19:32.345Z,8.52
2023-01-15T18:22:00.648Z,8.00
2023-01-15T18:24:28.803Z,8.45
2023-01-15T18:26:57.055Z,8.50
2023-01-15T18:29:25.295Z,8.57
2023-01-15T18:31:53.567Z,8.10
2023-01-15T18:34:22.304Z,8.07
2023-01-15T18:36:52.094Z,7.95
2023-01-15T18:39:20.265Z,8.48
2023-01-15T18:42:17.964Z,8.07
2023-01-15T18:45:00.113Z,8.45
2023-01-15T18:47:28.740Z,9.00
2023-01-15T18:49:56.951Z,8.88
2023-01-15T18:52:43.906Z,8.73
2023-01-15T18:55:12.235Z,9.02
2023-01-15T18:57:40.373Z,9.50
2023-01-15T19:00:12.298Z,8.32
2023-01-15T19:02:40.825Z,9.10
2023-01-15T19:05:11.947Z,7.72
2023-01-15T19:07:41.874Z,8.38
2023-01-15T19:10:11.496Z,8.27
2023-01-15T19:12:40.227Z,8.30
2023-01-15T19:15:27.277Z,7.95
2023-01-15T19:18:12.729Z,7.65
2023-01-15T19:20:41.020Z,6.80
2023-01-15T19:23:10.557Z,6.00
2023-01-15T19:25:40.572Z,4.47
2023-01-15T19:28:10.730Z,4.68
2023-01-15T19:30:40.224Z,4.55
2023-01-15T19:33:09.544Z,3.55
2023-01-15T19:35:39.967Z,3.45
2023-01-15T19:38:10.605Z,3.40
2023-01-15T19:40:42.148Z,3.20
2023-01-15T19:43:30.085Z,3.10
2023-01-15T19:46:16.379Z,3.15
2023-01-15T19:49:02.453Z,3.42
2023-01-15T19:52:01.038Z,3.78
2023-01-15T19:54:43.117Z,3.15
2023-01-15T19:57:12.770Z,4.30
2023-01-15T19:59:40.971Z,4.07
2023-01-15T20:02:09.252Z,4.82
2023-01-15T20:04:37.438Z,4.43
2023-01-15T20:07:05.725Z,4.85
2023-01-15T20:09:33.920Z,5.65
2023-01-15T20:12:19.780Z,5.25
2023-01-15T20:14:49.394Z,5.68
2023-01-15T20:17:17.554Z,6.55
2023-01-15T20:19:45.808Z,7.05
2023-01-15T20:22:14.055Z,6.88
2023-01-15T20:24:44.026Z,7.75
2023-01-15T20:27:13.066Z,8.45
2023-01-15T20:29:41.531Z,7.88
2023-01-15T20:32:11.127Z,7.13
2023-01-15T20:34:40.058Z,8.02
2023-01-15T20:37:08.322Z,8.02
2023-01-15T20:39:36.549Z,8.00
2023-01-15T20:42:22.155Z,8.80
2023-01-15T20:44:56.503Z,8.27
2023-01-15T20:47:46.310Z,8.98
2023-01-15T20:50:17.146Z,8.88
2023-01-15T20:52:47.588Z,8.82
2023-01-15T20:55:16.033Z,9.43
2023-01-15T20:57:44.615Z,9.60
2023-01-15T21:00:16.254Z,9.20
2023-01-15T21:02:46.054Z,8.77
2023-01-15T21:05:15.245Z,8.57
2023-01-15T21:07:43.920Z,8.50
2023-01-15T21:10:15.415Z,8.48
2023-01-15T21:12:43.607Z,7.53
2023-01-15T21:15:12.337Z,6.80
2023-01-15T21:17:41.096Z,6.18
2023-01-15T21:20:13.554Z,6.70
2023-01-15T21:22:41.892Z,6.50
2023-01-15T21:25:11.078Z,5.82
2023-01-15T21:27:39.352Z,5.75
2023-01-15T21:30:09.308Z,5.68
2023-01-15T21:32:39.437Z,5.72
2023-01-15T21:35:08.442Z,5.97
2023-01-15T21:37:38.004Z,5.80
2023-01-15T21:40:07.302Z,5.97
2023-01-15T21:43:04.595Z,5.40
2023-01-15T21:45:32.815Z,5.50
2023-01-15T21:48:01.005Z,5.95
2023-01-15T21:50:29.576Z,5.75
2023-01-15T21:52:59.126Z,5.68
2023-01-15T21:55:27.325Z,5.30
2023-01-15T21:57:55.811Z,5.90
2023-01-15T22:00:24.118Z,5.70
2023-01-15T22:02:54.140Z,5.35
2023-01-15T22:05:22.506Z,5.20
2023-01-15T22:07:50.705Z,5.40
2023-01-15T22:10:20.363Z,4.65
2023-01-15T22:12:48.562Z,5.20
2023-01-15T22:15:16.805Z,5.25
2023-01-15T22:17:44.935Z,4.68
2023-01-15T22:20:13.566Z,4.65
2023-01-15T22:22:41.708Z,4.93
2023-01-15T22:25:13.413Z,4.85
2023-01-15T22:27:43.562Z,4.68
2023-01-15T22:30:13.592Z,4.55
2023-01-15T22:32:41.835Z,4.75
2023-01-15T22:35:10.697Z,4.35
2023-01-15T22:37:39.071Z,4.75
2023-01-15T22:40:08.550Z,4.45
2023-01-15T22:42:35.833Z,4.30
2023-01-15T22:45:05.845Z,4.80
2023-01-15T22:47:34.114Z,4.30
2023-01-15T22:50:02.665Z,4.78
2023-01-15T22:52:31.071Z,4.20
2023-01-15T22:54:59.234Z,4.65
2023-01-15T22:57:29.427Z,4.47
2023-01-15T22:59:57.590Z,4.20
2023-01-15T23:02:41.185Z,4.80
2023-01-15T23:05:10.443Z,4.25
2023-01-15T23:07:41.312Z,4.30
2023-01-15T23:10:11.536Z,4.03
2023-01-15T23:12:40.459Z,3.75
2023-01-15T23:15:12.435Z,3.95
2023-01-15T23:17:42.263Z,3.63
2023-01-15T23:20:13.111Z,4.18
2023-01-15T23:22:41.417Z,3.92
2023-01-15T23:25:10.058Z,3.83
2023-01-15T23:27:38.373Z,3.90
2023-01-15T23:30:07.589Z,3.90
2023-01-15T23:32:35.785Z,3.75
2023-01-15T23:35:05.832Z,4.10
2023-01-15T23:37:34.233Z,4.38
2023-01-15T23:40:02.403Z,4.05
2023-01-15T23:42:47.340Z,4.15
2023-01-15T23:45:33.115Z,4.32
2023-01-15T23:48:01.407Z,4.28
2023-01-15T23:50:30.936Z,4.13
2023-01-15T23:52:59.213Z,4.22
2023-01-15T23:55:27.444Z,3.97
2023-01-15T23:57:55.735Z,4.25
